Time;durP1;ratioP1;P1;durP2;ratioP2;P2;SDS_P1;SDS_P2;PMS_P1;PMS_P2;Temp;Humidity;BMP_temperature;BMP_pressure;BME280_temperature;BME280_humidity;BME280_pressure;Samples;Min_cycle;Max_cycle;Signal;HPM_P1;HPM_P2
2021/03/02 00:01:54;;;;;;;10.95;2.55;;;3.30;99.90;;;;;;5038315;28;20576;-64
2021/03/02 00:04:21;;;;;;;13.52;3.20;;;3.30;99.90;;;;;;5034642;28;20044;-64
2021/03/02 00:06:50;;;;;;;8.85;2.53;;;3.30;99.90;;;;;;5033623;28;20032;-64
2021/03/02 00:09:16;;;;;;;9.98;2.05;;;3.20;99.90;;;;;;5032472;28;20037;-64
2021/03/02 00:11:47;;;;;;;8.20;1.90;;;3.20;99.90;;;;;;5038830;28;20021;-65
2021/03/02 00:14:13;;;;;;;8.13;1.95;;;3.30;99.90;;;;;;5034842;28;20633;-64
2021/03/02 00:17:01;;;;;;;8.82;2.03;;;3.30;99.90;;;;;;5035744;28;20385;-64
2021/03/02 00:19:44;;;;;;;25.15;2.33;;;3.30;99.90;;;;;;5032892;28;20123;-64
2021/03/02 00:22:24;;;;;;;11.88;1.95;;;3.20;99.90;;;;;;5034561;28;20037;-65
2021/03/02 00:24:56;;;;;;;16.20;2.65;;;3.30;99.90;;;;;;5030362;28;20412;-65
2021/03/02 00:27:23;;;;;;;10.95;1.92;;;3.20;99.90;;;;;;5031499;28;20031;-67
2021/03/02 00:29:50;;;;;;;13.63;1.75;;;3.20;99.90;;;;;;5031300;28;20029;-65
2021/03/02 00:32:22;;;;;;;8.27;1.80;;;3.20;99.90;;;;;;5035403;28;20044;-63
2021/03/02 00:34:48;;;;;;;10.82;1.80;;;3.20;99.90;;;;;;5035692;28;20041;-64
2021/03/02 00:37:15;;;;;;;6.53;1.48;;;3.20;99.90;;;;;;5035335;28;20416;-64
2021/03/02 00:39:41;;;;;;;25.40;2.05;;;3.00;99.90;;;;;;5035837;28;20025;-63
2021/03/02 00:42:07;;;;;;;8.35;1.38;;;2.90;99.90;;;;;;5039395;28;20059;-65
2021/03/02 00:44:34;;;;;;;7.45;1.20;;;2.90;99.90;;;;;;5037743;28;20126;-63
2021/03/02 00:47:01;;;;;;;15.35;1.80;;;2.90;99.90;;;;;;5036278;28;20037;-64
2021/03/02 00:49:27;;;;;;;40.58;4.10;;;2.80;99.90;;;;;;5039558;28;20213;-64
2021/03/02 00:51:53;;;;;;;16.70;2.10;;;2.80;99.90;;;;;;5031376;28;20471;-63
2021/03/02 00:54:19;;;;;;;6.82;1.60;;;2.60;99.90;;;;;;5039037;28;20040;-64
2021/03/02 00:56:45;;;;;;;11.57;1.70;;;2.60;99.90;;;;;;5037711;28;20029;-63
2021/03/02 00:59:11;;;;;;;10.48;1.92;;;2.70;99.90;;;;;;5036418;28;20029;-64
2021/03/02 01:01:37;;;;;;;19.83;1.80;;;2.70;99.90;;;;;;5037405;28;20698;-64
2021/03/02 01:04:04;;;;;;;11.45;1.85;;;2.70;99.90;;;;;;5037758;28;20060;-64
2021/03/02 01:06:30;;;;;;;31.60;2.63;;;2.70;99.90;;;;;;5036925;28;20163;-63
2021/03/02 01:08:56;;;;;;;33.53;2.78;;;2.70;99.90;;;;;;5040006;28;20450;-64
2021/03/02 01:11:22;;;;;;;12.25;2.25;;;2.70;99.90;;;;;;5037583;28;20021;-64
2021/03/02 01:13:48;;;;;;;18.45;2.38;;;2.80;99.90;;;;;;5037906;28;20036;-64
2021/03/02 01:16:14;;;;;;;18.95;2.17;;;2.70;99.90;;;;;;5032671;28;20033;-64
2021/03/02 01:18:40;;;;;;;13.23;1.90;;;2.60;99.90;;;;;;5038404;28;20087;-64
2021/03/02 01:21:05;;;;;;;18.25;2.15;;;2.60;99.90;;;;;;5035281;28;20052;-64
2021/03/02 01:23:31;;;;;;;15.23;2.13;;;2.70;99.90;;;;;;5036674;28;20448;-63
2021/03/02 01:25:57;;;;;;;30.17;2.83;;;2.70;99.90;;;;;;5036332;28;20196;-64
2021/03/02 01:28:23;;;;;;;38.28;3.17;;;2.60;99.90;;;;;;5038498;28;20393;-64
2021/03/02 01:30:49;;;;;;;30.73;2.92;;;2.60;99.90;;;;;;5038311;28;20389;-64
2021/03/02 01:33:14;;;;;;;21.00;1.63;;;2.50;99.90;;;;;;5036018;28;20108;-64
2021/03/02 01:35:40;;;;;;;5.20;1.48;;;2.50;99.90;;;;;;5036632;28;20056;-64
2021/03/02 01:38:06;;;;;;;15.30;2.10;;;2.40;99.90;;;;;;5037934;28;20037;-64
2021/03/02 01:40:32;;;;;;;6.75;1.05;;;2.50;99.90;;;;;;5038253;28;20029;-64
2021/03/02 01:42:58;;;;;;;16.23;2.15;;;2.50;99.90;;;;;;5038899;28;20597;-64
2021/03/02 01:45:24;;;;;;;12.93;1.75;;;2.50;99.90;;;;;;5034099;28;20037;-64
2021/03/02 01:47:51;;;;;;;17.45;2.13;;;2.40;99.90;;;;;;5031634;28;20028;-64
2021/03/02 01:50:19;;;;;;;42.92;4.10;;;2.40;99.90;;;;;;5035223;28;20079;-64
2021/03/02 01:52:45;;;;;;;16.20;1.58;;;2.40;99.90;;;;;;5034050;28;20036;-64
2021/03/02 01:55:14;;;;;;;17.90;1.80;;;2.40;99.90;;;;;;5034846;28;20523;-64
2021/03/02 01:57:39;;;;;;;15.65;1.60;;;2.30;99.90;;;;;;5036223;28;20028;-64
2021/03/02 02:00:14;;;;;;;8.18;1.40;;;2.30;99.90;;;;;;5035222;28;20059;-64
2021/03/02 02:03:00;;;;;;;10.55;1.80;;;2.20;99.90;;;;;;5038473;28;20087;-64
2021/03/02 02:05:31;;;;;;;14.13;1.90;;;2.30;99.90;;;;;;5033992;28;20033;-64
2021/03/02 02:08:02;;;;;;;17.73;2.00;;;2.30;99.90;;;;;;5036050;28;20994;-64
2021/03/02 02:10:37;;;;;;;8.35;1.48;;;2.30;99.90;;;;;;5037692;28;20040;-64
2021/03/02 02:13:07;;;;;;;15.07;2.08;;;2.30;99.90;;;;;;5036941;28;20302;-64
2021/03/02 02:15:37;;;;;;;17.73;1.92;;;2.30;99.90;;;;;;5037193;28;20106;-64
2021/03/02 02:18:04;;;;;;;25.95;3.13;;;2.30;99.90;;;;;;5037404;28;20054;-64
2021/03/02 02:20:36;;;;;;;21.50;2.40;;;2.40;99.90;;;;;;5040433;28;20036;-64
2021/03/02 02:23:23;;;;;;;22.63;2.72;;;2.40;99.90;;;;;;5037294;28;20033;-64
2021/03/02 02:26:15;;;;;;;27.65;2.75;;;2.40;99.90;;;;;;5037495;28;20025;-64
2021/03/02 02:28:42;;;;;;;5.88;1.80;;;2.40;99.90;;;;;;5039761;28;20748;-64
2021/03/02 02:31:09;;;;;;;7.90;1.73;;;2.40;99.90;;;;;;5038334;28;20033;-64
2021/03/02 02:33:41;;;;;;;4.40;1.67;;;2.40;99.90;;;;;;5039162;28;20388;-64
2021/03/02 02:36:10;;;;;;;8.60;2.17;;;2.30;99.90;;;;;;5038122;28;20549;-63
2021/03/02 02:38:41;;;;;;;44.00;4.05;;;2.30;99.90;;;;;;5038098;28;20116;-63
2021/03/02 02:41:08;;;;;;;12.55;2.10;;;2.30;99.90;;;;;;5039094;28;20107;-63
2021/03/02 02:43:35;;;;;;;10.88;1.73;;;2.30;99.90;;;;;;5037966;28;20059;-64
2021/03/02 02:46:01;;;;;;;13.55;1.63;;;2.30;99.90;;;;;;5034970;28;20029;-64
2021/03/02 02:48:28;;;;;;;19.40;2.00;;;2.10;99.90;;;;;;5039253;28;20060;-64
2021/03/02 02:50:55;;;;;;;11.90;2.08;;;2.00;99.90;;;;;;5038435;28;20121;-64
2021/03/02 02:53:22;;;;;;;8.65;1.60;;;2.00;99.90;;;;;;5039393;28;20043;-64
2021/03/02 02:55:55;;;;;;;18.70;1.77;;;2.00;99.90;;;;;;5037568;28;20094;-64
2021/03/02 02:58:33;;;;;;;43.75;3.75;;;2.10;99.90;;;;;;5038451;28;20076;-64
2021/03/02 03:01:03;;;;;;;5.53;1.73;;;2.00;99.90;;;;;;5039829;28;20511;-64
2021/03/02 03:03:31;;;;;;;14.35;2.00;;;2.00;99.90;;;;;;5035820;28;20029;-64
2021/03/02 03:06:01;;;;;;;18.25;1.92;;;2.00;99.90;;;;;;5038689;28;20033;-64
2021/03/02 03:08:31;;;;;;;38.30;3.63;;;2.00;99.90;;;;;;5032884;28;20033;-64
2021/03/02 03:10:59;;;;;;;57.08;4.35;;;2.00;99.90;;;;;;5037815;28;20523;-64
2021/03/02 03:13:31;;;;;;;22.33;2.30;;;2.00;99.90;;;;;;5038859;28;20059;-64
2021/03/02 03:16:01;;;;;;;18.60;2.33;;;1.90;99.90;;;;;;5037610;28;20025;-64
2021/03/02 03:18:43;;;;;;;16.27;2.15;;;2.00;99.90;;;;;;5036661;28;20601;-64
2021/03/02 03:21:11;;;;;;;19.58;2.63;;;2.00;99.90;;;;;;5038103;28;20044;-64
2021/03/02 03:23:37;;;;;;;29.75;3.13;;;2.00;99.90;;;;;;5039700;28;20124;-64
2021/03/02 03:26:04;;;;;;;22.83;2.97;;;2.00;99.90;;;;;;5036331;28;20083;-64
2021/03/02 03:28:30;;;;;;;14.00;2.50;;;2.00;99.90;;;;;;5035354;28;20554;-64
2021/03/02 03:30:56;;;;;;;31.88;3.80;;;1.90;99.90;;;;;;5035558;28;20036;-64
2021/03/02 03:33:24;;;;;;;14.93;2.53;;;1.90;99.90;;;;;;5038304;28;20031;-63
2021/03/02 03:35:51;;;;;;;15.63;1.80;;;1.90;99.90;;;;;;5033899;28;20025;-64
2021/03/02 03:38:17;;;;;;;18.23;2.80;;;1.80;99.90;;;;;;5038988;28;20705;-64
2021/03/02 03:40:43;;;;;;;20.88;2.33;;;1.80;99.90;;;;;;5033296;28;20028;-64
2021/03/02 03:43:09;;;;;;;9.48;2.08;;;1.70;99.90;;;;;;5034461;28;20037;-64
2021/03/02 03:45:35;;;;;;;9.43;2.53;;;1.70;99.90;;;;;;5037604;28;20108;-64
2021/03/02 03:48:01;;;;;;;15.45;2.03;;;1.70;99.90;;;;;;5034294;28;20033;-64
2021/03/02 03:50:27;;;;;;;15.15;2.08;;;1.80;99.90;;;;;;5036672;28;20582;-64
2021/03/02 03:53:01;;;;;;;11.90;2.10;;;1.80;99.90;;;;;;5037503;28;20123;-63
2021/03/02 03:55:31;;;;;;;12.13;2.45;;;1.80;99.90;;;;;;5035401;28;20902;-64
2021/03/02 03:57:57;;;;;;;13.43;2.47;;;1.80;99.90;;;;;;5036900;28;20037;-64
2021/03/02 04:00:24;;;;;;;15.80;2.22;;;1.80;99.90;;;;;;5034177;28;20061;-64
2021/03/02 04:02:51;;;;;;;11.68;2.00;;;1.80;99.90;;;;;;5038346;28;20128;-63
2021/03/02 04:05:18;;;;;;;24.45;3.13;;;1.90;99.90;;;;;;5033902;28;20028;-63
2021/03/02 04:07:45;;;;;;;43.72;3.90;;;2.00;99.90;;;;;;5038187;28;20029;-64
2021/03/02 04:10:12;;;;;;;6.30;1.77;;;2.00;99.90;;;;;;5033922;28;20040;-64
2021/03/02 04:12:39;;;;;;;9.27;1.67;;;2.10;99.90;;;;;;5035062;28;20029;-64
2021/03/02 04:15:16;;;;;;;25.73;3.05;;;2.10;99.90;;;;;;5033832;28;20488;-63
2021/03/02 04:17:52;;;;;;;20.25;3.10;;;2.10;99.90;;;;;;5037460;28;20053;-64
2021/03/02 04:20:19;;;;;;;5.95;2.17;;;2.10;99.90;;;;;;5036014;28;20063;-63
2021/03/02 04:22:45;;;;;;;21.92;2.78;;;2.10;99.90;;;;;;5034579;28;20033;-64
2021/03/02 04:25:11;;;;;;;21.58;1.98;;;2.00;99.90;;;;;;5036196;28;20024;-64
2021/03/02 04:27:38;;;;;;;20.80;3.50;;;2.10;99.90;;;;;;5033662;28;20162;-64
2021/03/02 04:30:05;;;;;;;16.70;1.90;;;2.10;99.90;;;;;;5035803;28;20057;-64
2021/03/02 04:32:31;;;;;;;11.85;2.45;;;2.10;99.90;;;;;;5032374;28;20422;-64
2021/03/02 04:34:57;;;;;;;13.93;2.63;;;2.00;99.90;;;;;;5036897;28;20052;-64
2021/03/02 04:37:23;;;;;;;46.50;3.85;;;2.10;99.90;;;;;;5036923;28;20041;-64
2021/03/02 04:39:49;;;;;;;24.30;2.42;;;2.20;99.90;;;;;;5029268;28;20097;-64
2021/03/02 04:42:14;;;;;;;8.32;2.33;;;2.10;99.90;;;;;;5036931;28;20037;-64
2021/03/02 04:44:40;;;;;;;10.65;2.53;;;2.10;99.90;;;;;;5035289;28;20183;-64
2021/03/02 04:47:06;;;;;;;18.95;2.78;;;2.20;99.90;;;;;;5036512;28;20037;-64
2021/03/02 04:49:32;;;;;;;6.30;2.03;;;2.20;99.90;;;;;;5030019;28;20091;-64
2021/03/02 04:51:58;;;;;;;10.93;2.85;;;2.10;99.90;;;;;;5036803;28;20033;-64
2021/03/02 04:54:25;;;;;;;48.58;4.50;;;2.10;99.90;;;;;;5033814;28;20025;-64
2021/03/02 04:56:52;;;;;;;26.38;3.85;;;2.10;99.90;;;;;;5030876;28;20098;-62
2021/03/02 04:59:18;;;;;;;24.85;3.75;;;2.10;99.90;;;;;;5030285;28;20039;-66
2021/03/02 05:01:44;;;;;;;24.85;4.00;;;2.20;99.90;;;;;;5035837;28;20039;-66
2021/03/02 05:04:10;;;;;;;36.90;3.97;;;2.20;99.90;;;;;;5034180;28;20520;-66
2021/03/02 05:06:36;;;;;;;66.07;7.25;;;2.10;99.90;;;;;;5034195;28;20771;-66
2021/03/02 05:09:02;;;;;;;18.27;4.53;;;2.00;99.90;;;;;;5033610;28;20033;-66
2021/03/02 05:11:28;;;;;;;41.85;4.93;;;1.90;99.90;;;;;;5034405;28;20031;-66
2021/03/02 05:13:53;;;;;;;13.95;3.33;;;2.00;99.90;;;;;;5032522;28;20392;-66
2021/03/02 05:16:19;;;;;;;11.77;4.05;;;1.90;99.90;;;;;;5032381;28;20069;-66
2021/03/02 05:18:45;;;;;;;18.85;4.05;;;2.00;99.90;;;;;;5033788;28;20055;-67
2021/03/02 05:21:11;;;;;;;8.95;2.72;;;2.00;99.90;;;;;;5034573;28;20029;-67
2021/03/02 05:23:37;;;;;;;10.68;2.33;;;2.00;99.90;;;;;;5035059;28;20040;-66
2021/03/02 05:26:04;;;;;;;7.20;2.80;;;2.00;99.90;;;;;;5033357;28;20396;-67
2021/03/02 05:28:30;;;;;;;12.48;3.10;;;2.00;99.90;;;;;;5033791;28;20519;-67
2021/03/02 05:30:56;;;;;;;12.88;2.35;;;2.00;99.90;;;;;;5037494;28;20037;-66
2021/03/02 05:33:22;;;;;;;28.15;3.33;;;2.00;99.90;;;;;;5037691;28;20483;-66
2021/03/02 05:35:48;;;;;;;12.48;2.58;;;2.10;99.90;;;;;;5035437;28;20029;-66
2021/03/02 05:38:13;;;;;;;14.45;3.85;;;2.10;99.90;;;;;;5035536;28;20352;-66
2021/03/02 05:40:43;;;;;;;11.95;3.05;;;2.10;99.90;;;;;;5036670;28;20124;-66
2021/03/02 05:43:09;;;;;;;14.63;3.55;;;2.10;99.90;;;;;;5036108;28;20271;-67
2021/03/02 05:45:36;;;;;;;11.10;3.10;;;2.10;99.90;;;;;;5035393;28;20052;-66
2021/03/02 05:48:06;;;;;;;20.75;3.15;;;2.10;99.90;;;;;;5030008;28;20543;-68
2021/03/02 05:50:32;;;;;;;49.75;4.93;;;2.10;99.90;;;;;;5007931;28;20444;-68
2021/03/02 05:53:01;;;;;;;27.05;3.80;;;2.10;99.90;;;;;;5032884;28;20024;-67
2021/03/02 05:55:28;;;;;;;27.45;3.45;;;2.10;99.90;;;;;;5032699;28;20472;-68
2021/03/02 05:57:56;;;;;;;23.17;3.70;;;2.10;99.90;;;;;;5035530;28;20086;-68
2021/03/02 06:00:23;;;;;;;8.13;2.55;;;2.10;99.90;;;;;;5035720;28;20040;-67
2021/03/02 06:02:49;;;;;;;4.55;2.42;;;2.20;99.90;;;;;;5036638;28;20029;-68
2021/03/02 06:05:15;;;;;;;15.55;3.10;;;2.20;99.90;;;;;;5036290;28;20031;-68
2021/03/02 06:07:41;;;;;;;10.85;2.72;;;2.20;99.90;;;;;;5038499;28;20036;-67
2021/03/02 06:10:07;;;;;;;9.82;3.13;;;2.20;99.90;;;;;;5039517;28;20032;-67
2021/03/02 06:12:53;;;;;;;10.07;3.22;;;2.10;99.90;;;;;;5036358;28;20050;-67
2021/03/02 06:15:20;;;;;;;6.55;2.83;;;2.10;99.90;;;;;;5036617;28;20123;-67
2021/03/02 06:17:46;;;;;;;6.47;3.42;;;2.10;99.90;;;;;;5039015;28;20111;-68
2021/03/02 06:20:20;;;;;;;8.60;3.33;;;2.00;99.90;;;;;;5037485;28;20045;-67
2021/03/02 06:22:46;;;;;;;10.38;4.38;;;2.10;99.90;;;;;;5039222;28;20569;-67
2021/03/02 06:25:33;;;;;;;16.08;4.57;;;2.20;99.90;;;;;;5038781;28;20025;-68
2021/03/02 06:27:59;;;;;;;11.98;3.78;;;2.10;99.90;;;;;;5038628;28;20098;-67
2021/03/02 06:30:26;;;;;;;10.05;4.40;;;2.10;99.90;;;;;;5039622;28;20039;-67
2021/03/02 06:32:53;;;;;;;13.00;4.03;;;2.20;99.90;;;;;;5039002;28;20060;-68
2021/03/02 06:35:30;;;;;;;8.35;4.13;;;2.10;99.90;;;;;;5039240;28;20032;-68
2021/03/02 06:37:56;;;;;;;7.13;4.30;;;2.10;99.90;;;;;;5038063;28;20585;-68
2021/03/02 06:40:45;;;;;;;14.98;5.00;;;2.10;99.90;;;;;;5038152;28;20033;-67
2021/03/02 06:43:38;;;;;;;11.65;5.07;;;2.10;99.90;;;;;;5036269;28;20455;-67
2021/03/02 06:46:10;;;;;;;10.00;5.05;;;2.10;99.90;;;;;;5037521;28;20052;-67
2021/03/02 06:48:53;;;;;;;20.17;4.32;;;2.10;99.90;;;;;;5037293;28;20400;-67
2021/03/02 06:51:30;;;;;;;9.07;4.43;;;2.20;99.90;;;;;;5038481;28;20156;-68
2021/03/02 06:54:08;;;;;;;8.50;3.15;;;2.30;99.90;;;;;;5036663;28;20028;-67
2021/03/02 06:56:37;;;;;;;10.05;3.58;;;2.20;99.90;;;;;;5038154;28;20053;-68
2021/03/02 06:59:19;;;;;;;5.53;2.55;;;2.30;99.90;;;;;;5037625;28;20384;-67
2021/03/02 07:01:47;;;;;;;14.27;3.03;;;2.40;99.90;;;;;;5038754;28;20491;-67
2021/03/02 07:04:15;;;;;;;5.45;3.13;;;2.30;99.90;;;;;;5038458;28;20071;-67
2021/03/02 07:06:46;;;;;;;5.85;3.10;;;2.30;99.90;;;;;;5038252;28;20318;-67
2021/03/02 07:09:15;;;;;;;10.30;3.70;;;2.30;99.90;;;;;;5037163;28;20559;-66
2021/03/02 07:11:41;;;;;;;7.70;2.87;;;2.40;99.90;;;;;;5036403;28;20483;-67
2021/03/02 07:14:10;;;;;;;8.48;2.72;;;2.40;99.90;;;;;;5038043;28;20044;-67
2021/03/02 07:16:39;;;;;;;16.35;3.42;;;2.40;99.90;;;;;;5038075;28;20403;-67
2021/03/02 07:19:06;;;;;;;15.07;3.33;;;2.50;99.90;;;;;;5038176;28;20199;-67
2021/03/02 07:21:39;;;;;;;16.05;2.78;;;2.60;99.90;;;;;;5037792;28;20478;-67
2021/03/02 07:24:09;;;;;;;5.90;2.72;;;2.60;99.90;;;;;;5037810;28;20031;-68
2021/03/02 07:26:37;;;;;;;6.13;2.53;;;2.70;99.90;;;;;;5038328;28;20094;-68
2021/03/02 07:29:03;;;;;;;12.73;2.63;;;2.70;99.90;;;;;;5034173;28;20068;-67
2021/03/02 07:31:33;;;;;;;7.47;3.25;;;2.80;99.90;;;;;;5037543;28;20032;-68
2021/03/02 07:34:05;;;;;;;14.55;2.67;;;2.90;99.90;;;;;;5037844;28;20419;-67
2021/03/02 07:36:37;;;;;;;9.73;2.47;;;2.80;99.90;;;;;;5038001;28;20059;-67
2021/03/02 07:39:14;;;;;;;11.32;2.70;;;2.90;99.90;;;;;;5037023;28;20386;-69
2021/03/02 07:41:40;;;;;;;3.25;2.08;;;3.00;99.90;;;;;;5037655;28;20370;-67
2021/03/02 07:44:07;;;;;;;11.20;2.78;;;3.00;99.90;;;;;;5034864;28;20773;-68
2021/03/02 07:46:42;;;;;;;9.45;2.65;;;3.00;99.90;;;;;;5036416;28;21033;-67
2021/03/02 07:49:23;;;;;;;9.70;2.80;;;3.10;99.90;;;;;;5037346;28;20143;-68
2021/03/02 07:52:01;;;;;;;6.20;2.65;;;3.10;99.90;;;;;;5037622;28;20511;-67
2021/03/02 07:54:28;;;;;;;6.18;2.67;;;3.10;99.90;;;;;;5034161;28;20114;-67
2021/03/02 07:57:16;;;;;;;9.48;2.95;;;3.20;99.90;;;;;;5037334;28;20021;-67
2021/03/02 07:59:44;;;;;;;10.90;2.80;;;3.10;99.90;;;;;;5037179;28;20480;-67
2021/03/02 08:02:13;;;;;;;9.23;2.70;;;3.10;99.90;;;;;;5032846;28;20120;-67
2021/03/02 08:04:39;;;;;;;12.25;2.90;;;3.10;99.90;;;;;;5035178;28;20090;-67
2021/03/02 08:07:20;;;;;;;7.68;2.53;;;3.10;99.90;;;;;;5036577;28;20037;-68
2021/03/02 08:09:47;;;;;;;5.00;3.05;;;3.10;99.90;;;;;;5037220;28;20037;-67
2021/03/02 08:12:30;;;;;;;4.88;2.60;;;3.20;99.90;;;;;;5037548;28;20360;-67
2021/03/02 08:14:57;;;;;;;6.00;2.70;;;3.30;99.90;;;;;;5035881;28;20036;-68
2021/03/02 08:17:24;;;;;;;8.63;3.08;;;3.40;99.90;;;;;;5036904;28;20055;-67
2021/03/02 08:20:06;;;;;;;6.75;2.70;;;3.50;99.90;;;;;;5036012;28;20523;-68
2021/03/02 08:22:33;;;;;;;3.85;2.75;;;3.50;99.90;;;;;;5036712;28;20041;-67
2021/03/02 08:25:09;;;;;;;4.40;2.78;;;3.50;99.90;;;;;;5036245;28;20059;-68
2021/03/02 08:27:45;;;;;;;6.30;2.92;;;3.60;99.90;;;;;;5035541;28;20029;-68
2021/03/02 08:30:18;;;;;;;11.35;3.72;;;3.60;99.90;;;;;;5035588;28;20056;-67
2021/03/02 08:32:44;;;;;;;6.53;3.25;;;3.70;99.90;;;;;;5035998;28;20029;-68
2021/03/02 08:35:15;;;;;;;11.30;3.50;;;3.70;99.90;;;;;;5036525;28;20025;-68
2021/03/02 08:37:53;;;;;;;11.35;4.20;;;3.80;99.90;;;;;;5034208;28;20182;-68
2021/03/02 08:40:31;;;;;;;5.07;3.45;;;3.80;99.90;;;;;;5036113;28;20365;-67
2021/03/02 08:43:05;;;;;;;12.15;3.97;;;3.90;99.90;;;;;;5035582;28;20056;-68
2021/03/02 08:45:41;;;;;;;4.50;3.05;;;4.00;99.90;;;;;;5036895;28;20040;-68
2021/03/02 08:48:16;;;;;;;6.10;3.08;;;4.10;99.90;;;;;;5036912;28;20037;-68
2021/03/02 08:50:42;;;;;;;6.38;3.92;;;4.20;99.90;;;;;;5037108;28;20455;-68
2021/03/02 08:53:47;;;;;;;4.75;3.20;;;4.30;99.90;;;;;;5034902;28;20060;-68
2021/03/02 08:56:17;;;;;;;6.43;3.45;;;4.40;99.90;;;;;;4986456;28;20038;-67
2021/03/02 08:58:45;;;;;;;8.85;3.70;;;4.50;99.90;;;;;;5032503;28;20060;-68
2021/03/02 09:01:15;;;;;;;4.72;3.15;;;4.40;99.90;;;;;;5040269;28;20033;-68
2021/03/02 09:03:45;;;;;;;6.38;3.72;;;4.40;99.90;;;;;;5040916;28;20468;-68
2021/03/02 09:06:24;;;;;;;9.85;4.80;;;4.40;99.90;;;;;;5038595;28;20029;-67
2021/03/02 09:08:51;;;;;;;7.65;4.55;;;4.50;99.90;;;;;;5040295;28;20454;-68
2021/03/02 09:11:20;;;;;;;8.20;4.35;;;4.40;99.90;;;;;;5039127;28;20031;-68
2021/03/02 09:13:47;;;;;;;6.95;4.13;;;4.50;99.90;;;;;;5040893;28;20025;-68
2021/03/02 09:16:29;;;;;;;7.75;4.78;;;4.50;99.90;;;;;;5040078;28;20032;-68
2021/03/02 09:19:24;;;;;;;10.07;5.00;;;4.60;99.90;;;;;;5038465;28;20479;-67
2021/03/02 09:21:50;;;;;;;8.18;5.05;;;4.70;99.90;;;;;;5038452;28;20037;-68
2021/03/02 09:24:20;;;;;;;6.85;4.32;;;4.80;99.90;;;;;;5040597;28;20029;-68
2021/03/02 09:27:05;;;;;;;6.93;4.70;;;4.80;99.90;;;;;;5039671;28;20552;-68
2021/03/02 09:29:35;;;;;;;7.20;5.22;;;4.80;99.90;;;;;;5040025;28;20108;-67
2021/03/02 09:32:04;;;;;;;8.23;5.30;;;4.80;99.90;;;;;;5038913;28;20439;-68
2021/03/02 09:34:38;;;;;;;13.43;5.88;;;4.80;99.90;;;;;;5021609;28;20025;-68
2021/03/02 09:37:07;;;;;;;16.65;5.53;;;4.80;99.90;;;;;;5040315;28;20120;-67
2021/03/02 09:39:33;;;;;;;10.23;5.68;;;5.00;99.90;;;;;;5040526;28;20059;-68
2021/03/02 09:42:00;;;;;;;10.77;5.68;;;5.00;99.90;;;;;;5030051;28;20060;-68
2021/03/02 09:44:33;;;;;;;10.05;5.50;;;4.90;99.90;;;;;;5038039;28;20350;-68
2021/03/02 09:47:04;;;;;;;10.48;7.05;;;4.90;99.90;;;;;;5039523;28;20047;-68
2021/03/02 09:49:38;;;;;;;13.25;6.40;;;4.90;99.90;;;;;;5039906;28;20456;-68
2021/03/02 09:52:06;;;;;;;7.35;5.00;;;4.90;99.90;;;;;;5038977;28;20572;-68
2021/03/02 09:54:32;;;;;;;11.95;6.57;;;5.00;99.90;;;;;;5038611;28;20025;-68
2021/03/02 09:57:03;;;;;;;9.15;6.32;;;5.00;99.90;;;;;;5038886;28;20036;-68
2021/03/02 09:59:30;;;;;;;15.43;7.18;;;5.00;99.90;;;;;;5039389;28;20106;-68
2021/03/02 10:01:57;;;;;;;10.30;6.43;;;5.10;99.90;;;;;;5038763;28;20039;-68
2021/03/02 10:04:23;;;;;;;11.10;8.20;;;5.10;99.90;;;;;;5035836;28;20417;-68
2021/03/02 10:06:49;;;;;;;8.77;6.30;;;5.10;99.90;;;;;;5038685;28;20241;-68
2021/03/02 10:09:23;;;;;;;12.05;7.72;;;5.10;99.90;;;;;;5039623;28;20036;-68
2021/03/02 10:12:10;;;;;;;11.02;7.28;;;5.10;99.90;;;;;;5039626;28;20036;-68
2021/03/02 10:14:40;;;;;;;8.45;5.82;;;5.10;99.90;;;;;;5039262;28;20025;-68
2021/03/02 10:17:06;;;;;;;9.90;6.10;;;5.00;99.90;;;;;;5036652;28;20048;-68
2021/03/02 10:19:34;;;;;;;10.90;7.93;;;5.10;99.90;;;;;;5038364;28;20126;-68
2021/03/02 10:22:02;;;;;;;12.95;7.82;;;5.10;99.90;;;;;;5039557;28;20077;-68
2021/03/02 10:24:36;;;;;;;10.10;7.07;;;5.10;99.90;;;;;;5039167;28;20029;-68
2021/03/02 10:27:20;;;;;;;10.55;6.05;;;5.20;99.90;;;;;;5038552;28;20039;-68
2021/03/02 10:29:48;;;;;;;9.07;5.90;;;5.30;99.90;;;;;;5039388;28;21077;-68
2021/03/02 10:32:14;;;;;;;9.23;5.65;;;5.20;99.90;;;;;;5039001;28;20454;-68
2021/03/02 10:34:41;;;;;;;10.90;7.07;;;5.20;99.90;;;;;;5039681;28;20073;-68
2021/03/02 10:37:09;;;;;;;10.25;6.15;;;5.20;99.90;;;;;;5037331;28;20033;-67
2021/03/02 10:39:36;;;;;;;9.77;6.65;;;5.20;99.90;;;;;;5038717;28;20357;-69
2021/03/02 10:42:05;;;;;;;10.50;6.90;;;5.30;99.90;;;;;;5038262;28;20033;-69
2021/03/02 10:44:31;;;;;;;10.20;6.40;;;5.40;99.90;;;;;;5037873;28;20025;-68
2021/03/02 10:46:57;;;;;;;9.23;6.10;;;5.40;99.90;;;;;;5036847;28;20202;-68
2021/03/02 10:49:23;;;;;;;10.43;6.57;;;5.60;99.90;;;;;;5038886;28;20029;-68
2021/03/02 10:51:49;;;;;;;11.20;6.30;;;5.50;99.90;;;;;;5038384;28;20021;-68
2021/03/02 10:54:15;;;;;;;7.60;5.25;;;5.50;99.90;;;;;;5037713;28;20500;-68
2021/03/02 10:56:41;;;;;;;7.35;5.03;;;5.50;99.90;;;;;;5039114;28;20028;-68
2021/03/02 10:59:08;;;;;;;9.60;5.65;;;5.60;99.90;;;;;;5036766;28;20574;-68
2021/03/02 11:01:34;;;;;;;10.18;5.78;;;5.60;99.90;;;;;;5036868;28;20079;-68
2021/03/02 11:03:59;;;;;;;9.98;5.78;;;5.70;99.90;;;;;;5038912;28;20025;-68
2021/03/02 11:06:25;;;;;;;11.30;5.40;;;5.70;99.90;;;;;;5038561;28;20025;-68
2021/03/02 11:08:52;;;;;;;8.60;5.80;;;5.70;99.90;;;;;;5038249;28;20410;-69
2021/03/02 11:11:20;;;;;;;8.38;5.80;;;5.60;99.90;;;;;;5035681;28;20511;-68
2021/03/02 11:13:47;;;;;;;8.63;5.47;;;5.60;99.90;;;;;;5036463;28;20033;-68
2021/03/02 11:16:13;;;;;;;8.40;5.03;;;5.70;99.90;;;;;;5038433;28;20128;-69
2021/03/02 11:18:39;;;;;;;7.80;5.50;;;5.90;99.90;;;;;;5036428;28;20529;-69
2021/03/02 11:21:06;;;;;;;7.45;5.13;;;6.00;99.90;;;;;;5038462;28;20029;-69
2021/03/02 11:23:32;;;;;;;6.30;4.88;;;6.10;99.90;;;;;;5037766;28;20571;-69
2021/03/02 11:25:58;;;;;;;7.78;4.85;;;6.20;99.90;;;;;;5036322;28;20172;-68
2021/03/02 11:28:24;;;;;;;9.35;4.95;;;6.20;99.90;;;;;;5036515;28;20148;-69
2021/03/02 11:30:50;;;;;;;8.25;5.47;;;6.10;99.90;;;;;;5036744;28;20345;-68
2021/03/02 11:33:16;;;;;;;7.05;5.00;;;6.10;99.90;;;;;;5037805;28;20116;-68
2021/03/02 11:35:44;;;;;;;9.13;5.25;;;6.10;99.90;;;;;;5037805;28;20067;-68
2021/03/02 11:38:13;;;;;;;9.18;6.00;;;6.20;99.90;;;;;;5037892;28;20031;-68
2021/03/02 11:40:39;;;;;;;12.38;5.32;;;6.10;99.90;;;;;;5036173;28;20362;-69
2021/03/02 11:43:05;;;;;;;10.25;5.93;;;6.30;99.90;;;;;;5037168;28;20044;-68
2021/03/02 11:45:35;;;;;;;9.60;4.93;;;6.30;99.90;;;;;;5037133;28;20017;-69
2021/03/02 11:48:01;;;;;;;8.13;5.78;;;6.30;99.90;;;;;;5037620;28;20820;-68
2021/03/02 11:50:26;;;;;;;6.65;4.55;;;6.40;99.90;;;;;;5036771;28;20095;-69
2021/03/02 11:52:52;;;;;;;9.20;5.60;;;6.70;99.90;;;;;;5037026;28;20032;-69
2021/03/02 11:55:19;;;;;;;8.40;5.35;;;6.80;99.90;;;;;;5037700;28;20067;-69
2021/03/02 11:57:46;;;;;;;7.63;4.88;;;6.90;99.90;;;;;;5036701;28;20036;-69
2021/03/02 12:00:15;;;;;;;9.40;6.30;;;7.10;99.90;;;;;;5036656;28;20025;-69
2021/03/02 12:02:41;;;;;;;9.02;5.82;;;7.20;99.90;;;;;;5037098;28;20036;-68
2021/03/02 12:05:07;;;;;;;10.25;5.93;;;7.00;99.90;;;;;;5034477;28;20029;-69
2021/03/02 12:07:34;;;;;;;11.20;6.38;;;7.00;99.90;;;;;;5037041;28;20720;-69
2021/03/02 12:10:01;;;;;;;10.27;6.25;;;7.20;99.90;;;;;;5036814;28;20040;-69
2021/03/02 12:12:27;;;;;;;9.32;6.28;;;7.10;99.90;;;;;;5037442;28;20049;-69
2021/03/02 12:14:53;;;;;;;8.77;5.90;;;7.20;99.90;;;;;;5036386;28;20020;-68
2021/03/02 12:17:18;;;;;;;10.55;6.10;;;7.20;99.90;;;;;;5036764;28;20586;-69
2021/03/02 12:19:44;;;;;;;8.45;6.03;;;7.30;99.90;;;;;;5035579;28;20116;-69
2021/03/02 12:22:10;;;;;;;10.15;6.68;;;7.30;99.90;;;;;;5035924;28;20068;-69
2021/03/02 12:24:36;;;;;;;9.25;5.82;;;7.40;99.90;;;;;;5037315;28;20075;-69
2021/03/02 12:27:02;;;;;;;10.45;6.30;;;7.40;99.90;;;;;;5034716;28;20032;-69
2021/03/02 12:29:28;;;;;;;12.25;6.35;;;7.60;99.90;;;;;;5036760;28;20033;-69
2021/03/02 12:31:54;;;;;;;10.20;6.82;;;7.80;99.90;;;;;;5035931;28;20857;-69
2021/03/02 12:34:20;;;;;;;10.38;6.80;;;7.70;99.90;;;;;;5035162;28;20041;-69
2021/03/02 12:36:46;;;;;;;9.63;6.97;;;7.70;99.90;;;;;;5037523;28;20392;-69
2021/03/02 12:39:12;;;;;;;11.25;7.30;;;7.70;99.90;;;;;;5035152;28;20021;-69
2021/03/02 12:41:38;;;;;;;10.52;6.90;;;7.80;99.90;;;;;;5035153;28;20064;-69
2021/03/02 12:44:05;;;;;;;8.82;5.95;;;7.90;99.90;;;;;;5036818;28;20376;-69
2021/03/02 12:46:32;;;;;;;8.68;6.25;;;8.00;99.90;;;;;;5037600;28;20028;-69
2021/03/02 12:48:58;;;;;;;8.13;5.35;;;8.00;99.90;;;;;;5035390;28;20036;-69
2021/03/02 12:51:24;;;;;;;8.45;6.18;;;7.90;99.90;;;;;;5035859;28;20438;-69
2021/03/02 12:53:49;;;;;;;8.52;5.82;;;7.90;99.90;;;;;;5036517;28;20051;-69
2021/03/02 12:56:16;;;;;;;10.70;5.53;;;7.80;99.90;;;;;;5036620;28;20462;-69
2021/03/02 12:58:42;;;;;;;9.00;5.35;;;7.90;99.90;;;;;;5035597;28;20040;-69
2021/03/02 13:01:08;;;;;;;8.95;5.75;;;7.90;99.90;;;;;;5034259;28;20025;-69